Time;durP1;ratioP1;P1;durP2;ratioP2;P2;SDS_P1;SDS_P2;PMS_P1;PMS_P2;Temp;Humidity;BMP_temperature;BMP_pressure;BME280_temperature;BME280_humidity;BME280_pressure;Samples;Min_cycle;Max_cycle;Signal;HPM_P1;HPM_P2
2022/07/20 00:01:55;;;;;;;3.17;2.52;;;25.90;38.60;;;;;;944295;149;27330;-74
2022/07/20 00:04:21;;;;;;;3.00;2.77;;;25.90;38.80;;;;;;943977;149;27391;-74
2022/07/20 00:06:48;;;;;;;3.58;2.62;;;25.90;38.80;;;;;;944637;149;27364;-74
2022/07/20 00:12:00;;;;;;;3.02;2.72;;;25.80;38.90;;;;;;944607;149;27517;-74
2022/07/20 00:14:26;;;;;;;3.98;2.70;;;25.80;38.80;;;;;;944395;149;27405;-74
2022/07/20 00:16:52;;;;;;;3.00;2.75;;;25.80;39.00;;;;;;943563;149;27273;-74
2022/07/20 00:19:19;;;;;;;3.35;2.58;;;25.70;39.00;;;;;;944302;149;27292;-74
2022/07/20 00:21:46;;;;;;;2.62;2.42;;;25.60;39.10;;;;;;944463;149;27420;-74
2022/07/20 00:24:12;;;;;;;4.30;2.85;;;25.60;39.20;;;;;;944409;149;27345;-74
2022/07/20 00:26:39;;;;;;;2.77;2.30;;;25.60;39.30;;;;;;944343;149;27384;-75
2022/07/20 00:29:05;;;;;;;2.45;2.20;;;25.50;39.40;;;;;;944183;149;27297;-74
2022/07/20 00:31:32;;;;;;;2.80;2.33;;;25.40;39.40;;;;;;944768;149;27437;-74
2022/07/20 00:33:59;;;;;;;3.45;2.60;;;25.40;39.50;;;;;;944252;149;27672;-74
2022/07/20 00:36:25;;;;;;;2.58;2.37;;;25.40;39.60;;;;;;944233;149;27440;-74
2022/07/20 00:38:52;;;;;;;3.98;2.90;;;25.40;39.70;;;;;;944703;149;27237;-74
2022/07/20 00:41:18;;;;;;;3.27;2.70;;;25.30;39.70;;;;;;945781;149;27347;-74
2022/07/20 00:43:57;;;;;;;3.47;2.80;;;25.30;40.10;;;;;;948593;148;27299;-74
2022/07/20 00:46:24;;;;;;;2.77;2.33;;;25.30;39.80;;;;;;947800;148;27809;-74
2022/07/20 00:48:50;;;;;;;2.70;2.47;;;25.20;39.70;;;;;;948259;148;27375;-74
2022/07/20 00:51:17;;;;;;;2.98;2.10;;;25.20;39.80;;;;;;947606;148;27403;-74
2022/07/20 00:53:43;;;;;;;3.60;2.40;;;25.10;39.90;;;;;;948142;148;27376;-74
2022/07/20 00:56:10;;;;;;;3.45;2.47;;;25.10;40.00;;;;;;948476;148;27388;-74
2022/07/20 00:58:36;;;;;;;2.35;2.20;;;25.00;40.10;;;;;;948056;148;27416;-74
2022/07/20 01:01:03;;;;;;;2.83;2.47;;;24.90;40.20;;;;;;948700;148;27367;-74
2022/07/20 01:03:30;;;;;;;2.75;2.50;;;24.90;40.30;;;;;;948461;148;27367;-74
2022/07/20 01:05:56;;;;;;;2.83;2.62;;;24.80;40.50;;;;;;948664;148;27392;-74
2022/07/20 01:08:23;;;;;;;2.65;2.40;;;24.70;40.60;;;;;;948524;148;27261;-74
2022/07/20 01:10:49;;;;;;;2.80;2.50;;;24.70;40.70;;;;;;948375;148;27404;-74
2022/07/20 01:13:16;;;;;;;4.40;2.40;;;24.60;40.80;;;;;;948138;148;27421;-74
2022/07/20 01:15:43;;;;;;;2.45;2.25;;;24.60;41.00;;;;;;948287;148;27407;-75
2022/07/20 01:18:09;;;;;;;2.92;2.45;;;24.50;41.00;;;;;;948236;148;27755;-74
2022/07/20 01:20:36;;;;;;;3.98;2.35;;;24.50;41.10;;;;;;948528;148;27348;-74
2022/07/20 01:23:02;;;;;;;2.67;2.47;;;24.50;41.10;;;;;;948793;148;27418;-74
2022/07/20 01:25:29;;;;;;;2.50;2.30;;;24.50;41.10;;;;;;948143;148;27435;-74
2022/07/20 01:27:56;;;;;;;3.05;2.75;;;24.50;41.20;;;;;;948286;148;27447;-74
2022/07/20 01:30:22;;;;;;;2.52;2.20;;;24.50;41.20;;;;;;948624;148;27327;-74
2022/07/20 01:32:49;;;;;;;3.40;2.55;;;24.50;41.20;;;;;;948535;148;27405;-74
2022/07/20 01:35:15;;;;;;;3.42;2.22;;;24.50;41.30;;;;;;948330;148;27272;-74
2022/07/20 01:37:42;;;;;;;2.90;2.40;;;24.50;41.30;;;;;;948916;148;27287;-74
2022/07/20 01:40:09;;;;;;;2.65;2.45;;;24.40;41.40;;;;;;948392;148;27331;-74
2022/07/20 01:42:35;;;;;;;3.17;2.75;;;24.40;41.50;;;;;;944957;148;27507;-74
2022/07/20 01:45:02;;;;;;;2.77;2.58;;;24.40;41.70;;;;;;944362;149;27293;-74
2022/07/20 01:47:28;;;;;;;4.12;2.87;;;24.30;41.80;;;;;;944226;149;27419;-74
2022/07/20 01:49:55;;;;;;;3.20;2.62;;;24.30;42.20;;;;;;944451;149;27406;-74
2022/07/20 01:52:21;;;;;;;3.42;2.80;;;24.30;42.80;;;;;;944395;149;27284;-74
2022/07/20 01:54:48;;;;;;;3.45;2.90;;;24.20;43.30;;;;;;944660;149;27471;-75
2022/07/20 01:57:15;;;;;;;4.08;2.90;;;24.20;43.50;;;;;;944491;149;27416;-74
2022/07/20 01:59:41;;;;;;;3.37;2.58;;;24.10;43.30;;;;;;944275;149;27323;-74
2022/07/20 02:02:08;;;;;;;3.58;2.08;;;24.00;43.50;;;;;;944541;149;27288;-74
2022/07/20 02:04:35;;;;;;;3.20;2.47;;;24.00;43.70;;;;;;944810;149;27335;-74
2022/07/20 02:07:01;;;;;;;4.25;2.40;;;23.90;43.90;;;;;;944243;149;27335;-74
2022/07/20 02:09:28;;;;;;;3.12;2.35;;;23.80;44.00;;;;;;944413;149;27356;-74
2022/07/20 02:11:54;;;;;;;6.10;2.80;;;23.70;44.20;;;;;;944507;149;27265;-74
2022/07/20 02:14:21;;;;;;;4.03;2.65;;;23.70;44.50;;;;;;944334;149;27313;-74
2022/07/20 02:16:47;;;;;;;3.08;2.77;;;23.60;44.70;;;;;;944164;149;27319;-74
2022/07/20 02:19:14;;;;;;;3.05;2.77;;;23.50;45.00;;;;;;944018;149;27348;-74
2022/07/20 02:21:40;;;;;;;3.08;2.83;;;23.40;45.30;;;;;;944664;149;27335;-74
2022/07/20 02:24:07;;;;;;;2.62;2.42;;;23.40;45.70;;;;;;944502;149;27377;-74
2022/07/20 02:26:34;;;;;;;3.08;2.80;;;23.40;45.90;;;;;;944091;149;27400;-75
2022/07/20 02:29:00;;;;;;;2.55;2.35;;;23.20;46.00;;;;;;944324;149;27332;-74
2022/07/20 02:31:27;;;;;;;3.40;2.70;;;23.20;46.10;;;;;;944131;149;27264;-74
2022/07/20 02:33:53;;;;;;;3.10;2.90;;;23.10;46.30;;;;;;944873;149;27342;-74
2022/07/20 02:36:20;;;;;;;5.12;2.62;;;23.10;46.60;;;;;;943910;149;27355;-74
2022/07/20 02:38:47;;;;;;;3.12;2.80;;;23.00;47.00;;;;;;944548;149;27301;-74
2022/07/20 02:41:13;;;;;;;3.50;2.87;;;22.90;47.30;;;;;;944668;149;27258;-74
2022/07/20 02:43:40;;;;;;;2.87;2.58;;;22.80;47.50;;;;;;944250;149;27476;-74
2022/07/20 02:46:06;;;;;;;3.42;3.02;;;22.70;47.90;;;;;;944560;149;27357;-74
2022/07/20 02:48:33;;;;;;;4.45;2.70;;;22.70;48.20;;;;;;944659;149;27466;-74
2022/07/20 02:51:00;;;;;;;4.67;2.90;;;22.60;48.30;;;;;;944863;149;27315;-75
2022/07/20 02:53:26;;;;;;;3.45;2.95;;;22.50;48.30;;;;;;944642;149;27308;-74
2022/07/20 02:55:53;;;;;;;3.15;2.80;;;22.50;48.50;;;;;;944189;149;27289;-75
2022/07/20 02:58:19;;;;;;;3.22;2.52;;;22.40;48.70;;;;;;943463;149;27341;-74
2022/07/20 03:00:46;;;;;;;5.75;3.37;;;22.30;48.80;;;;;;944146;149;27712;-75
2022/07/20 03:03:13;;;;;;;3.15;2.62;;;22.20;49.00;;;;;;943881;149;27297;-74
2022/07/20 03:05:39;;;;;;;2.92;2.70;;;22.20;49.80;;;;;;944133;149;27713;-75
2022/07/20 03:08:06;;;;;;;4.17;2.92;;;22.10;49.30;;;;;;944330;149;27343;-75
2022/07/20 03:10:32;;;;;;;3.90;2.87;;;22.00;49.40;;;;;;944161;149;27304;-75
2022/07/20 03:12:59;;;;;;;5.78;2.92;;;21.90;49.50;;;;;;944087;149;27433;-74
2022/07/20 03:15:25;;;;;;;3.80;3.50;;;21.80;49.80;;;;;;943817;149;27481;-74
2022/07/20 03:17:52;;;;;;;2.90;2.70;;;21.80;50.10;;;;;;943466;149;27285;-75
2022/07/20 03:20:31;;;;;;;3.58;3.02;;;21.70;50.20;;;;;;943440;149;27427;-74
2022/07/20 03:22:57;;;;;;;4.72;2.65;;;21.70;50.30;;;;;;944144;149;27324;-74
2022/07/20 03:25:24;;;;;;;3.00;2.80;;;21.60;50.40;;;;;;945039;149;27442;-75
2022/07/20 03:27:53;;;;;;;3.10;2.77;;;21.60;50.70;;;;;;943854;149;27363;-74
2022/07/20 03:30:20;;;;;;;4.03;2.85;;;21.60;50.90;;;;;;943614;149;27305;-75
2022/07/20 03:32:47;;;;;;;3.27;2.87;;;21.50;51.20;;;;;;943950;149;27283;-75
2022/07/20 03:35:13;;;;;;;2.95;2.70;;;21.50;51.40;;;;;;943863;149;27300;-75
2022/07/20 03:37:40;;;;;;;4.95;2.98;;;21.50;51.70;;;;;;943488;149;27363;-75
2022/07/20 03:40:06;;;;;;;3.67;2.98;;;21.50;51.70;;;;;;943635;149;28354;-75
2022/07/20 03:42:33;;;;;;;4.05;3.35;;;21.50;51.70;;;;;;942417;149;27382;-75
2022/07/20 03:45:00;;;;;;;3.35;3.05;;;21.50;51.80;;;;;;938990;150;27265;-75
2022/07/20 03:47:26;;;;;;;4.95;3.17;;;21.50;52.10;;;;;;937953;149;27351;-75
2022/07/20 03:49:53;;;;;;;3.42;2.90;;;21.50;52.40;;;;;;939095;150;27394;-75
2022/07/20 03:52:19;;;;;;;4.72;3.00;;;21.50;52.50;;;;;;938612;150;28003;-75
2022/07/20 03:54:46;;;;;;;3.22;3.02;;;21.50;52.50;;;;;;939622;150;27774;-75
2022/07/20 03:57:13;;;;;;;3.00;2.77;;;21.60;52.50;;;;;;938657;150;27382;-75
2022/07/20 03:59:39;;;;;;;3.85;2.72;;;21.60;52.60;;;;;;938733;150;27312;-75
2022/07/20 04:02:06;;;;;;;3.70;2.90;;;21.60;52.60;;;;;;939470;150;27863;-75
2022/07/20 04:04:32;;;;;;;3.62;3.30;;;21.60;52.80;;;;;;938606;150;27309;-75
2022/07/20 04:06:59;;;;;;;7.25;3.42;;;21.60;52.90;;;;;;938873;149;27396;-75
2022/07/20 04:09:44;;;;;;;6.67;3.20;;;21.70;53.00;;;;;;938455;150;27304;-75
2022/07/20 04:12:14;;;;;;;3.92;3.00;;;21.70;52.90;;;;;;938927;149;27405;-75
2022/07/20 04:14:40;;;;;;;3.47;3.17;;;21.80;52.90;;;;;;938170;150;27325;-75
2022/07/20 04:17:07;;;;;;;3.60;3.30;;;21.80;53.00;;;;;;939286;150;27387;-75
2022/07/20 04:19:36;;;;;;;3.50;3.20;;;21.80;53.00;;;;;;939551;150;27310;-75
2022/07/20 04:22:03;;;;;;;3.65;3.00;;;21.90;53.00;;;;;;939464;150;27457;-75
2022/07/20 04:24:29;;;;;;;3.65;2.85;;;21.90;53.10;;;;;;938505;150;28288;-75
2022/07/20 04:26:56;;;;;;;3.77;3.40;;;22.00;53.20;;;;;;938947;150;27329;-75
2022/07/20 04:29:23;;;;;;;3.67;3.12;;;22.10;53.30;;;;;;938708;150;27389;-75
2022/07/20 04:31:49;;;;;;;4.28;3.27;;;22.10;53.30;;;;;;939391;150;27704;-75
2022/07/20 04:34:16;;;;;;;3.80;3.17;;;22.20;53.30;;;;;;938487;150;27401;-75
2022/07/20 04:36:42;;;;;;;3.77;3.35;;;22.30;53.50;;;;;;938571;150;27441;-74
2022/07/20 04:39:09;;;;;;;3.58;3.05;;;22.40;53.30;;;;;;938990;150;27313;-74
2022/07/20 04:41:36;;;;;;;3.25;2.95;;;22.50;53.40;;;;;;938360;150;27321;-74
2022/07/20 04:44:02;;;;;;;3.67;3.17;;;22.60;53.20;;;;;;946804;148;27439;-75
2022/07/20 04:46:29;;;;;;;3.77;3.15;;;22.70;53.20;;;;;;954049;148;27419;-74
2022/07/20 04:48:55;;;;;;;3.40;3.10;;;22.80;53.10;;;;;;953616;147;27796;-75
2022/07/20 04:51:22;;;;;;;3.45;3.12;;;22.90;53.10;;;;;;952948;148;27431;-74
2022/07/20 04:53:48;;;;;;;4.67;2.90;;;23.00;53.00;;;;;;953423;148;27311;-75
2022/07/20 04:56:16;;;;;;;3.22;2.92;;;23.00;53.00;;;;;;953416;148;27419;-74
2022/07/20 04:58:42;;;;;;;3.62;3.05;;;23.10;53.00;;;;;;953442;147;27319;-74
2022/07/20 05:01:08;;;;;;;3.27;2.42;;;23.30;53.20;;;;;;952869;148;27359;-75
2022/07/20 05:03:35;;;;;;;3.08;2.80;;;23.50;53.50;;;;;;953203;148;27330;-75
2022/07/20 05:06:01;;;;;;;4.65;3.37;;;23.80;53.80;;;;;;952824;147;27400;-75
2022/07/20 05:08:28;;;;;;;4.00;2.65;;;24.20;54.10;;;;;;952506;148;27408;-75
2022/07/20 05:10:55;;;;;;;3.22;2.92;;;24.70;54.00;;;;;;953228;148;27734;-75
2022/07/20 05:13:21;;;;;;;4.22;3.12;;;25.30;53.90;;;;;;952830;147;27420;-75
2022/07/20 05:15:48;;;;;;;6.90;3.75;;;26.00;53.60;;;;;;953612;148;27343;-75
2022/07/20 05:18:14;;;;;;;3.52;2.58;;;26.70;53.40;;;;;;953138;148;27308;-75
2022/07/20 05:20:41;;;;;;;3.00;2.65;;;27.40;52.70;;;;;;953679;148;27248;-75
2022/07/20 05:23:08;;;;;;;3.22;2.92;;;28.10;52.10;;;;;;953058;148;27291;-75
2022/07/20 05:25:38;;;;;;;3.58;3.10;;;28.90;51.40;;;;;;953602;148;27364;-76
2022/07/20 05:28:01;;;;;;;3.85;3.22;;;29.80;50.70;;;;;;952660;148;27322;-76
2022/07/20 05:30:27;;;;;;;3.15;2.80;;;30.60;49.70;;;;;;953178;148;27237;-75
2022/07/20 05:32:54;;;;;;;2.75;2.50;;;31.40;48.80;;;;;;953312;147;27432;-75
2022/07/20 05:35:21;;;;;;;2.70;2.50;;;32.20;47.90;;;;;;953381;148;27303;-75
2022/07/20 05:37:47;;;;;;;3.27;2.70;;;33.00;47.10;;;;;;953639;147;27296;-75
2022/07/20 05:40:14;;;;;;;3.92;2.47;;;33.70;46.00;;;;;;953679;148;27466;-76
2022/07/20 05:42:40;;;;;;;2.75;2.55;;;34.50;45.10;;;;;;952943;148;28306;-76
2022/07/20 05:45:07;;;;;;;3.10;2.80;;;35.30;44.20;;;;;;947682;148;27444;-76
2022/07/20 05:47:33;;;;;;;3.62;2.85;;;35.90;43.20;;;;;;944393;149;26334;-76
2022/07/20 05:50:00;;;;;;;3.83;2.40;;;36.60;42.40;;;;;;943933;149;26205;-76
2022/07/20 05:52:27;;;;;;;3.75;2.80;;;37.30;41.50;;;;;;944925;149;27841;-76
2022/07/20 05:54:53;;;;;;;6.42;2.55;;;37.90;40.60;;;;;;944672;149;27369;-76
2022/07/20 05:57:20;;;;;;;2.45;2.27;;;38.40;39.70;;;;;;944167;149;26280;-76
2022/07/20 05:59:46;;;;;;;2.83;2.25;;;38.90;39.00;;;;;;944520;149;26274;-76
2022/07/20 06:02:13;;;;;;;2.83;2.20;;;39.50;38.40;;;;;;944444;149;26212;-76
2022/07/20 06:04:40;;;;;;;3.77;2.90;;;40.00;37.80;;;;;;944948;149;26285;-76
2022/07/20 06:07:06;;;;;;;3.72;2.30;;;40.50;37.20;;;;;;944493;149;26341;-76
2022/07/20 06:09:33;;;;;;;2.37;2.17;;;41.00;36.30;;;;;;944019;149;26185;-76
2022/07/20 06:11:59;;;;;;;4.35;2.37;;;41.50;35.40;;;;;;943964;149;26195;-76
2022/07/20 06:14:26;;;;;;;2.20;2.05;;;42.00;34.50;;;;;;944473;149;26240;-76
2022/07/20 06:16:53;;;;;;;2.40;2.20;;;42.50;34.00;;;;;;944888;149;26269;-76
2022/07/20 06:19:19;;;;;;;2.90;2.05;;;42.90;33.30;;;;;;944416;149;26235;-76
2022/07/20 06:21:46;;;;;;;3.17;2.12;;;43.40;32.90;;;;;;944696;149;26256;-77
2022/07/20 06:24:14;;;;;;;2.02;1.90;;;43.80;32.60;;;;;;944374;149;26363;-77
2022/07/20 06:26:39;;;;;;;3.40;1.92;;;44.30;32.00;;;;;;944262;149;26181;-77
2022/07/20 06:29:05;;;;;;;2.98;1.80;;;44.80;31.30;;;;;;944691;149;26209;-75
2022/07/20 06:31:32;;;;;;;3.22;2.25;;;45.40;30.50;;;;;;944311;149;26276;-75
2022/07/20 06:33:59;;;;;;;2.17;2.00;;;45.90;30.10;;;;;;943807;149;26381;-75
2022/07/20 06:36:25;;;;;;;3.83;2.08;;;46.40;29.50;;;;;;943955;149;26190;-75
2022/07/20 06:38:52;;;;;;;5.58;1.90;;;46.90;28.80;;;;;;943947;149;26227;-75
2022/07/20 06:41:18;;;;;;;3.27;2.10;;;47.30;28.20;;;;;;944526;149;26326;-75
2022/07/20 06:43:45;;;;;;;4.03;1.80;;;47.70;27.70;;;;;;944292;149;26197;-75
2022/07/20 06:46:12;;;;;;;1.82;1.52;;;48.10;27.00;;;;;;939672;149;26308;-75
2022/07/20 06:48:40;;;;;;;2.80;1.70;;;48.30;26.70;;;;;;939146;150;26381;-75
2022/07/20 06:51:05;;;;;;;4.10;1.80;;;48.50;26.40;;;;;;938668;150;26354;-75
2022/07/20 06:53:31;;;;;;;4.60;1.52;;;48.70;26.40;;;;;;938888;150;26267;-75
2022/07/20 06:56:00;;;;;;;1.95;1.50;;;48.80;25.90;;;;;;939239;150;26329;-76
2022/07/20 06:58:25;;;;;;;3.75;1.82;;;49.00;25.80;;;;;;939288;150;26275;-75
2022/07/20 07:00:51;;;;;;;3.08;1.75;;;49.10;25.60;;;;;;939376;150;26249;-75
2022/07/20 07:03:18;;;;;;;1.60;1.50;;;49.40;25.20;;;;;;938908;150;26206;-75
2022/07/20 07:05:44;;;;;;;2.15;1.55;;;49.60;25.00;;;;;;939203;150;26247;-75
2022/07/20 07:08:11;;;;;;;3.37;1.70;;;49.90;24.60;;;;;;938388;150;26690;-76
2022/07/20 07:10:37;;;;;;;2.00;1.62;;;50.00;24.30;;;;;;939021;150;26344;-75
2022/07/20 07:13:04;;;;;;;2.05;1.50;;;50.00;24.10;;;;;;938437;150;26269;-75
2022/07/20 07:15:31;;;;;;;4.05;1.70;;;50.10;23.90;;;;;;938931;150;26238;-75
2022/07/20 07:17:57;;;;;;;2.40;1.60;;;50.20;23.90;;;;;;938492;150;26271;-75
2022/07/20 07:20:24;;;;;;;1.75;1.65;;;50.30;23.70;;;;;;938646;150;26309;-75
2022/07/20 07:22:50;;;;;;;4.33;1.60;;;50.40;23.60;;;;;;938677;150;26185;-76
2022/07/20 07:25:17;;;;;;;3.65;1.77;;;50.60;23.40;;;;;;938387;150;26362;-76
2022/07/20 07:27:44;;;;;;;4.92;1.52;;;50.70;23.20;;;;;;938494;150;26272;-76
2022/07/20 07:30:10;;;;;;;3.77;1.92;;;50.80;23.00;;;;;;938776;150;26307;-76
2022/07/20 07:32:37;;;;;;;2.45;1.82;;;50.80;22.70;;;;;;939075;150;26306;-76
2022/07/20 07:35:04;;;;;;;1.95;1.70;;;50.80;22.50;;;;;;939103;150;26218;-75
2022/07/20 07:37:30;;;;;;;2.20;1.60;;;50.80;22.40;;;;;;939031;150;26242;-76
2022/07/20 07:39:57;;;;;;;1.80;1.67;;;50.80;22.40;;;;;;938854;150;26252;-75
2022/07/20 07:42:23;;;;;;;3.60;2.25;;;50.60;22.20;;;;;;939193;150;26257;-76
2022/07/20 07:44:50;;;;;;;1.92;1.60;;;50.50;22.20;;;;;;939393;149;26321;-76
2022/07/20 07:47:17;;;;;;;3.05;1.77;;;50.30;22.20;;;;;;944222;149;26310;-75
2022/07/20 07:49:43;;;;;;;1.65;1.45;;;50.30;22.10;;;;;;944218;149;26245;-75
2022/07/20 07:52:10;;;;;;;3.80;2.40;;;50.10;22.30;;;;;;944083;149;26385;-75
2022/07/20 07:57:05;;;;;;;4.85;1.77;;;50.00;22.30;;;;;;973061;145;36080;-76
2022/07/20 07:59:32;;;;;;;1.80;1.62;;;50.00;22.30;;;;;;960579;148;26197;-77
2022/07/20 08:01:59;;;;;;;3.05;1.90;;;50.10;22.30;;;;;;961190;148;26229;-76
2022/07/20 08:04:25;;;;;;;2.22;1.50;;;50.20;22.30;;;;;;960041;149;26335;-77
2022/07/20 08:06:52;;;;;;;3.00;1.90;;;50.30;22.20;;;;;;960188;148;26115;-77
2022/07/20 08:09:19;;;;;;;3.83;1.80;;;50.50;22.00;;;;;;960265;148;26204;-77
2022/07/20 08:11:45;;;;;;;1.77;1.67;;;50.70;22.00;;;;;;960538;148;26271;-77
2022/07/20 08:14:12;;;;;;;1.62;1.47;;;50.80;21.80;;;;;;960673;148;26248;-77
2022/07/20 08:16:38;;;;;;;1.30;1.20;;;51.00;21.80;;;;;;961084;148;26352;-77
2022/07/20 08:19:05;;;;;;;2.47;1.45;;;51.20;21.80;;;;;;960869;149;26326;-77
2022/07/20 08:21:31;;;;;;;2.83;1.40;;;51.40;21.70;;;;;;961111;149;26248;-77
2022/07/20 08:23:58;;;;;;;1.67;1.55;;;51.50;21.70;;;;;;961513;148;26136;-77
2022/07/20 08:26:24;;;;;;;1.20;1.20;;;51.60;21.50;;;;;;960652;149;26197;-77
2022/07/20 08:28:51;;;;;;;1.60;1.50;;;51.80;21.40;;;;;;960776;149;26317;-77
2022/07/20 08:31:18;;;;;;;6.12;1.60;;;51.90;21.30;;;;;;961081;149;26216;-77
2022/07/20 08:33:44;;;;;;;1.42;1.30;;;51.90;21.10;;;;;;960935;149;26164;-77
2022/07/20 08:36:11;;;;;;;1.42;1.32;;;52.00;21.50;;;;;;960728;149;26255;-76
2022/07/20 08:38:37;;;;;;;3.83;1.57;;;52.10;21.00;;;;;;961611;148;26202;-77
2022/07/20 08:41:04;;;;;;;1.57;1.47;;;52.20;21.00;;;;;;961284;148;26286;-77
2022/07/20 08:43:31;;;;;;;6.00;1.62;;;52.30;20.90;;;;;;960760;148;26242;-77
2022/07/20 08:45:57;;;;;;;3.25;1.40;;;52.40;20.90;;;;;;960436;148;26272;-77
2022/07/20 08:48:25;;;;;;;1.42;1.32;;;52.60;20.90;;;;;;959518;148;26258;-77
2022/07/20 08:50:50;;;;;;;2.37;1.50;;;52.70;20.60;;;;;;959901;148;26190;-77
2022/07/20 08:53:17;;;;;;;2.47;1.55;;;52.90;20.60;;;;;;944537;151;26302;-77
2022/07/20 08:55:44;;;;;;;1.77;1.67;;;52.90;20.30;;;;;;944538;149;26569;-77
2022/07/20 08:58:10;;;;;;;2.85;1.47;;;53.00;20.30;;;;;;943658;150;26328;-77
2022/07/20 09:00:37;;;;;;;1.70;1.60;;;53.10;20.40;;;;;;943789;150;26291;-77
2022/07/20 09:03:03;;;;;;;1.60;1.50;;;53.10;20.30;;;;;;944029;150;26300;-77
2022/07/20 09:05:30;;;;;;;2.55;1.20;;;53.20;20.20;;;;;;943590;150;26247;-77
2022/07/20 09:07:56;;;;;;;2.27;1.75;;;53.20;20.30;;;;;;943483;149;26260;-76
2022/07/20 09:10:25;;;;;;;1.50;1.20;;;53.30;20.10;;;;;;943150;150;26266;-77
2022/07/20 09:12:58;;;;;;;1.85;1.62;;;53.40;20.00;;;;;;943959;150;26668;-77
2022/07/20 09:15:47;;;;;;;1.55;1.20;;;53.50;20.00;;;;;;943883;150;26369;-77
2022/07/20 09:18:24;;;;;;;2.60;1.40;;;53.50;19.90;;;;;;943417;149;26758;-77
2022/07/20 09:20:50;;;;;;;1.42;1.32;;;53.50;19.90;;;;;;943474;149;26233;-77
2022/07/20 09:23:25;;;;;;;1.70;1.40;;;53.50;19.70;;;;;;943489;150;26295;-77
2022/07/20 09:26:03;;;;;;;1.60;1.50;;;53.50;19.80;;;;;;943772;150;26228;-77
2022/07/20 09:28:45;;;;;;;2.10;1.65;;;53.40;20.00;;;;;;943166;150;26357;-78
2022/07/20 09:31:18;;;;;;;1.37;1.27;;;53.50;19.90;;;;;;943931;149;26190;-78
2022/07/20 09:33:50;;;;;;;2.75;1.82;;;53.50;19.90;;;;;;943651;150;26195;-77
2022/07/20 09:36:17;;;;;;;3.20;1.70;;;53.60;19.80;;;;;;940469;150;26314;-76
2022/07/20 09:38:43;;;;;;;2.85;1.52;;;53.60;19.80;;;;;;943563;149;26280;-77
2022/07/20 09:41:28;;;;;;;1.95;1.77;;;53.50;19.50;;;;;;943902;150;26349;-76
2022/07/20 09:43:54;;;;;;;3.08;1.45;;;53.30;19.30;;;;;;943155;150;26214;-77
2022/07/20 09:46:21;;;;;;;1.87;1.45;;;53.00;19.30;;;;;;943854;150;26218;-77
2022/07/20 09:48:47;;;;;;;1.72;1.15;;;52.80;19.50;;;;;;943838;149;26218;-77
2022/07/20 09:51:17;;;;;;;6.15;1.40;;;52.60;19.70;;;;;;943389;149;26908;-77
2022/07/20 09:53:44;;;;;;;1.90;1.55;;;52.50;19.90;;;;;;943347;150;26279;-77
2022/07/20 09:56:10;;;;;;;1.50;1.40;;;52.50;19.90;;;;;;942963;149;26644;-78
2022/07/20 09:58:37;;;;;;;2.42;1.27;;;52.50;19.90;;;;;;938234;150;26330;-77
2022/07/20 10:01:03;;;;;;;2.05;1.70;;;52.50;19.80;;;;;;938016;152;26515;-77
2022/07/20 10:03:30;;;;;;;2.58;1.60;;;52.40;19.60;;;;;;937915;151;26345;-77
2022/07/20 10:05:56;;;;;;;1.47;1.37;;;52.40;19.60;;;;;;938309;152;26239;-77
2022/07/20 10:08:23;;;;;;;3.55;1.70;;;52.30;19.50;;;;;;937627;150;27379;-78
2022/07/20 10:10:50;;;;;;;1.77;1.40;;;52.30;19.50;;;;;;938430;151;26195;-78
2022/07/20 10:13:16;;;;;;;1.80;1.57;;;52.10;19.40;;;;;;938499;151;26214;-78
2022/07/20 10:15:45;;;;;;;1.72;1.62;;;51.90;19.50;;;;;;938043;150;26209;-78
2022/07/20 10:18:12;;;;;;;5.53;1.80;;;51.70;19.50;;;;;;936796;152;26288;-77
2022/07/20 10:20:38;;;;;;;2.20;1.85;;;51.50;19.40;;;;;;938296;151;26253;-78
2022/07/20 10:23:14;;;;;;;3.47;1.82;;;51.30;19.40;;;;;;938123;152;26168;-78
2022/07/20 10:25:41;;;;;;;4.12;1.90;;;51.00;19.40;;;;;;938341;152;26571;-78
2022/07/20 10:28:26;;;;;;;3.40;1.95;;;50.90;19.90;;;;;;937998;151;26255;-78
2022/07/20 10:30:53;;;;;;;7.30;2.20;;;50.50;19.30;;;;;;937330;152;26273;-78
2022/07/20 10:33:19;;;;;;;2.65;1.90;;;50.20;19.30;;;;;;938130;152;26255;-78
2022/07/20 10:35:47;;;;;;;1.90;1.80;;;49.70;19.30;;;;;;937506;152;26269;-77
2022/07/20 10:38:12;;;;;;;2.33;2.20;;;49.20;19.30;;;;;;937084;152;26221;-78
2022/07/20 10:41:31;;;;;;;2.37;2.17;;;48.70;19.50;;;;;;938004;152;26212;-78
2022/07/20 10:43:11;;;;;;;2.47;2.27;;;48.20;19.80;;;;;;935721;152;26333;-77
2022/07/20 10:45:38;;;;;;;2.90;2.50;;;47.80;20.00;;;;;;937721;151;26255;-77
2022/07/20 10:48:13;;;;;;;2.95;2.02;;;47.30;20.10;;;;;;937499;152;26346;-77
2022/07/20 10:50:42;;;;;;;2.52;2.20;;;46.80;20.30;;;;;;938161;152;26653;-77
2022/07/20 10:53:12;;;;;;;2.40;2.20;;;46.40;20.40;;;;;;937046;150;26309;-77
2022/07/20 10:55:38;;;;;;;2.15;1.90;;;45.90;20.70;;;;;;937924;152;26272;-77
2022/07/20 10:58:05;;;;;;;4.05;2.30;;;45.30;20.80;;;;;;938443;151;26220;-77
2022/07/20 11:00:37;;;;;;;2.52;2.10;;;44.90;21.10;;;;;;938011;152;26235;-77
2022/07/20 11:03:03;;;;;;;2.80;2.60;;;44.60;21.40;;;;;;938524;152;26257;-77
2022/07/20 11:05:30;;;;;;;2.52;2.35;;;44.20;21.60;;;;;;938550;152;26272;-77
2022/07/20 11:07:57;;;;;;;3.17;2.30;;;43.90;21.70;;;;;;937513;152;26188;-77
2022/07/20 11:10:26;;;;;;;2.62;2.15;;;43.70;21.70;;;;;;936659;152;26686;-77
2022/07/20 11:12:55;;;;;;;2.45;2.15;;;43.50;21.90;;;;;;938145;152;26227;-77
2022/07/20 11:15:22;;;;;;;4.22;2.22;;;43.30;22.00;;;;;;937469;152;27499;-77
2022/07/20 11:17:48;;;;;;;2.12;1.92;;;43.10;22.10;;;;;;938435;149;26253;-77
2022/07/20 11:20:18;;;;;;;2.27;2.10;;;43.00;22.20;;;;;;938909;152;26184;-77
2022/07/20 11:22:44;;;;;;;2.72;2.50;;;43.00;22.30;;;;;;937690;152;26273;-77
2022/07/20 11:25:11;;;;;;;2.87;2.08;;;43.00;22.50;;;;;;938038;152;26260;-77
2022/07/20 11:27:37;;;;;;;2.80;2.30;;;42.90;22.60;;;;;;937936;152;26227;-77
2022/07/20 11:30:04;;;;;;;2.65;2.45;;;42.90;22.60;;;;;;937332;152;26932;-77
2022/07/20 11:32:31;;;;;;;3.67;2.37;;;42.90;22.60;;;;;;938357;150;26197;-77
2022/07/20 11:34:58;;;;;;;3.85;2.40;;;42.90;22.50;;;;;;937643;151;26306;-77
2022/07/20 11:37:25;;;;;;;3.27;2.33;;;42.80;22.60;;;;;;937044;152;26187;-77
2022/07/20 11:39:50;;;;;;;5.12;2.17;;;42.80;22.70;;;;;;937443;152;26259;-77
2022/07/20 11:42:17;;;;;;;3.35;2.42;;;42.70;22.70;;;;;;938533;150;27348;-77
2022/07/20 11:44:59;;;;;;;4.00;2.52;;;42.60;22.70;;;;;;938438;152;26204;-77
2022/07/20 11:47:25;;;;;;;2.77;2.40;;;42.50;22.80;;;;;;937951;151;26184;-77
2022/07/20 11:50:04;;;;;;;5.50;2.90;;;42.50;22.70;;;;;;938339;151;27388;-77
2022/07/20 11:52:39;;;;;;;2.70;2.45;;;42.40;22.90;;;;;;935867;150;26777;-77
2022/07/20 11:55:06;;;;;;;2.87;2.25;;;42.30;22.70;;;;;;938284;152;26424;-77
2022/07/20 11:57:33;;;;;;;2.60;2.40;;;42.20;22.80;;;;;;938532;151;26269;-77
2022/07/20 11:59:59;;;;;;;3.75;2.30;;;42.10;22.80;;;;;;944232;151;27383;-77
2022/07/20 12:02:26;;;;;;;4.80;2.60;;;42.00;22.90;;;;;;944058;151;27279;-77
2022/07/20 12:04:52;;;;;;;3.25;3.00;;;41.90;23.00;;;;;;943747;151;26333;-77
2022/07/20 12:10:25;;;;;;;3.00;2.70;;;41.70;23.20;;;;;;942992;151;26195;-77
2022/07/20 12:13:03;;;;;;;3.62;2.42;;;41.70;23.00;;;;;;942569;151;26236;-77
2022/07/20 12:15:30;;;;;;;2.95;2.55;;;41.70;23.10;;;;;;942440;151;26368;-77
2022/07/20 12:17:56;;;;;;;3.25;2.50;;;41.70;23.30;;;;;;943321;151;26268;-77
2022/07/20 12:20:23;;;;;;;2.30;2.20;;;41.70;23.20;;;;;;943473;151;26260;-77
2022/07/20 12:22:52;;;;;;;3.05;2.25;;;41.70;23.20;;;;;;943407;151;27314;-77
2022/07/20 12:25:18;;;;;;;2.98;2.50;;;41.70;23.10;;;;;;943293;151;26210;-77
2022/07/20 12:27:45;;;;;;;4.67;2.50;;;41.70;23.20;;;;;;942969;151;26699;-77
2022/07/20 12:30:37;;;;;;;2.50;2.33;;;41.70;23.30;;;;;;943976;151;27329;-77
2022/07/20 12:33:04;;;;;;;2.35;2.15;;;41.70;23.20;;;;;;932452;152;27369;-77
2022/07/20 12:35:31;;;;;;;2.87;2.42;;;41.70;23.20;;;;;;940838;151;26234;-77
2022/07/20 12:37:58;;;;;;;4.00;2.42;;;41.70;23.20;;;;;;943547;151;26297;-77
2022/07/20 12:40:42;;;;;;;3.00;2.35;;;41.60;23.30;;;;;;943995;151;27333;-77
2022/07/20 12:43:27;;;;;;;3.67;2.65;;;41.60;23.40;;;;;;943602;151;27317;-77
2022/07/20 12:45:56;;;;;;;2.85;2.45;;;41.50;23.30;;;;;;943846;151;27325;-77
2022/07/20 12:48:23;;;;;;;4.05;2.67;;;41.50;23.40;;;;;;943566;151;27230;-77
2022/07/20 12:50:49;;;;;;;3.87;2.55;;;41.40;23.40;;;;;;943503;149;26237;-77
2022/07/20 12:53:16;;;;;;;3.33;2.80;;;41.30;23.50;;;;;;943945;151;26275;-77
2022/07/20 12:55:43;;;;;;;3.85;2.65;;;41.30;23.60;;;;;;943673;151;27682;-77
2022/07/20 12:58:09;;;;;;;3.30;2.52;;;41.20;23.80;;;;;;942486;151;26181;-77